Flight Track Log - Related Links

Times and Time Zones

All times are in EDT time to prevent confusion due to time zone crossing. See the EJA951 flight status page for this flight to view local times or setup timezone preferences in your user account.

Time Position Orientation Groundspeed Altitude Reporting Facility
EDT Latitude Longitude Course Direction KTS MPH feet Rate Location/Type
Fri 05:12:43 PM 45.7925 -111.2289 111° Southeast 220 253 7,200  Level Salt Lake Center
Fri 05:13:45 PM 45.7356 -111.2725 208° Southwest 276 318 10,500 2,968 Climbing Salt Lake Center
Fri 05:15:00 PM 45.3666 -109.5084 109° East  Level Estimated
Fri 05:15:00 PM 45.6806 -111.0426 90° East  Level Estimated
Fri 05:15:49 PM 45.6256 -111.1153 90° East 328 377 16,400  Level Salt Lake Center
Fri 05:16:00 PM 45.3195 -109.3273 110° East  Level Estimated
Fri 05:16:51 PM 45.6378 -110.9289 85° East 401 461 17,800  Level Salt Lake Center
Fri 05:17:00 PM 45.2721 -109.1464 110° East  Level Estimated
Fri 05:17:53 PM 45.6508 -110.7553 84° East 438 504 19,600  Level Salt Lake Center
Fri 05:18:00 PM 45.2244 -108.9659 111° Southeast  Level Estimated
Fri 05:18:55 PM 45.6817 -110.5719 76° East 450 518 21,100  Level Salt Lake Center
Fri 05:19:56 PM 45.7072 -110.3964 78° East 452 520 22,400 1,161 Climbing Salt Lake Center
Fri 05:20:59 PM 45.7178 -110.2097 85° East 468 539 23,500 1,104 Climbing Salt Lake Center
Fri 05:22:01 PM 45.7292 -110.0200 85° East 477 549 24,700 1,210 Climbing Salt Lake Center
Fri 05:23:03 PM 45.7417 -109.8261 85° East 487 560 26,000 1,355 Climbing Salt Lake Center
Fri 05:24:05 PM 45.7578 -109.5889 84° East 495 570 27,500 1,210 Climbing Salt Lake Center
Fri 05:25:07 PM 45.7683 -109.3892 86° East 504 580 28,500 1,016 Climbing Salt Lake Center
Fri 05:26:09 PM 45.7797 -109.1842 85° East 515 593 29,600 1,065 Climbing Salt Lake Center
Fri 05:27:11 PM 45.7908 -108.9742 86° East 523 602 30,700 1,258 Climbing Salt Lake Center
Fri 05:28:13 PM 45.8014 -108.7631 86° East 528 608 32,200 1,645 Climbing Salt Lake Center
Fri 05:29:15 PM 45.7911 -108.5519 94° East 525 604 34,100 1,790 Climbing Salt Lake Center
Fri 05:30:17 PM 45.7183 -108.3136 114° Southeast 538 619 35,900 1,694 Climbing Salt Lake Center
Fri 05:31:19 PM 45.6617 -108.1244 113° Southeast 518 596 37,600 1,452 Climbing Salt Lake Center
Fri 05:32:21 PM 45.6036 -107.9319 113° Southeast 524 603 38,900 1,161 Climbing Salt Lake Center
Fri 05:33:23 PM 45.5458 -107.7394 113° Southeast 526 605 40,000 968 Climbing Salt Lake Center
Fri 05:34:25 PM 45.4867 -107.5467 114° Southeast 530 610 40,900 484 Climbing Salt Lake Center
Fri 05:35:27 PM 45.4264 -107.3500 114° Southeast 539 620 41,000 48 Climbing Salt Lake Center
Fri 05:36:29 PM 45.3639 -107.1461 114° Southeast 557 641 41,000  Level Salt Lake Center
Fri 05:37:31 PM 45.2878 -106.9014 114° Southeast 563 648 41,000  Level Salt Lake Center
Fri 05:38:33 PM 45.2225 -106.6933 114° Southeast 573 659 41,000  Level Salt Lake Center
Fri 05:39:35 PM 45.1564 -106.4858 114° Southeast 577 664 41,000  Level Salt Lake Center
Fri 05:40:37 PM 45.0908 -106.2786 114° Southeast 577 664 41,000  Level Salt Lake Center
Fri 05:41:39 PM 45.0242 -106.0731 115° Southeast 576 663 41,000  Level Salt Lake Center
Fri 05:42:49 PM 44.9444 -105.8275 115° Southeast 575 662 41,000  Level Denver Center
Fri 05:43:43 PM 44.8903 -105.6631 115° Southeast 575 662 41,000  Level Salt Lake Center
Fri 05:44:45 PM 44.8094 -105.4183 115° Southeast 576 663 41,000  Level Salt Lake Center
Fri 05:45:48 PM 44.7333 -105.2211 118° Southeast 575 662 41,000  Level Salt Lake Center
Fri 05:46:50 PM 44.6558 -105.0381 121° Southeast 575 662 41,000  Level Salt Lake Center
Fri 05:47:52 PM 44.5642 -104.8236 121° Southeast 573 659 41,000  Level Salt Lake Center
Fri 05:48:54 PM 44.4864 -104.6381 120° Southeast 576 663 41,000  Level Salt Lake Center
Fri 05:49:56 PM 44.3928 -104.4231 121° Southeast 578 665 41,000  Level Salt Lake Center
Fri 05:50:58 PM 44.3139 -104.2403 121° Southeast 575 662 41,000  Level Salt Lake Center
Fri 05:52:00 PM 44.2225 -104.0306 121° Southeast 568 654 41,000  Level Salt Lake Center
Fri 05:53:02 PM 44.1433 -103.8497 121° Southeast 569 655 41,000  Level Salt Lake Center
Fri 05:54:04 PM 44.0497 -103.6381 122° Southeast 573 659 41,000  Level Salt Lake Center
Fri 05:55:14 PM 43.9586 -103.4331 122° Southeast 568 654 41,000  Level Denver Center
Fri 05:56:16 PM 43.8783 -103.2561 122° Southeast 567 652 41,000  Level Denver Center
Fri 05:57:18 PM 43.7828 -103.0453 122° Southeast 573 659 41,000  Level Denver Center
Fri 05:58:20 PM 43.7000 -102.8656 122° Southeast 577 664 41,000  Level Denver Center
Fri 05:59:23 PM 43.6069 -102.6583 122° Southeast 574 661 41,000  Level Denver Center
Fri 06:00:25 PM 43.5247 -102.4808 123° Southeast 572 658 41,000  Level Denver Center
Fri 06:01:27 PM 43.4281 -102.2736 123° Southeast 576 663 41,000  Level Denver Center
Fri 06:02:29 PM 43.3433 -102.0931 123° Southeast 577 664 41,000  Level Denver Center
Fri 06:03:31 PM 43.2497 -101.8925 123° Southeast 572 658 41,000  Level Denver Center
Fri 06:04:33 PM 43.1711 -101.7289 123° Southeast 573 659 41,000  Level Denver Center
Fri 06:05:35 PM 43.0858 -101.5461 123° Southeast 572 658 41,000  Level Denver Center
Fri 06:06:37 PM 42.9817 -101.3269 123° Southeast 576 663 41,000  Level Denver Center
Fri 06:07:39 PM 42.8942 -101.1469 124° Southeast 572 658 41,000  Level Denver Center
Fri 06:08:41 PM 42.8067 -100.9675 124° Southeast 570 656 41,000  Level Denver Center
Fri 06:10:45 PM 42.6339 -100.6131 123° Southeast 568 654 41,000  Level Denver Center
Fri 06:11:47 PM 42.5367 -100.4153 124° Southeast 563 648 41,000  Level Denver Center
Fri 06:12:17 PM 42.4994 -100.3406 124° Southeast 565 650 41,000  Level Minneapolis Center
Fri 06:12:49 PM 42.4519 -100.2456 124° Southeast 565 650 41,000  Level Denver Center
Fri 06:13:51 PM 42.3550 -100.0500 124° Southeast 563 648 41,000  Level Denver Center
Fri 06:14:54 PM 42.2711 -99.8822 124° Southeast 561 646 41,000  Level Denver Center
Fri 06:15:24 PM 42.2181 -99.7800 125° Southeast 564 649 41,000  Level Minneapolis Center
Fri 06:16:26 PM 42.1306 -99.6056 124° Southeast 562 647 41,000  Level Minneapolis Center
Fri 06:16:58 PM 42.0767 -99.5003 125° Southeast 561 646 41,000  Level Denver Center
Fri 06:18:00 PM 41.9872 -99.3261 125° Southeast 564 649 41,000  Level Denver Center
Fri 06:19:02 PM 41.8992 -99.1542 124° Southeast 559 643 41,000  Level Denver Center
Fri 06:20:04 PM 41.8103 -98.9811 125° Southeast 561 646 41,000  Level Denver Center
Fri 06:21:06 PM 41.7206 -98.8097 125° Southeast 559 643 41,000  Level Denver Center
Fri 06:21:36 PM 41.6669 -98.7056 125° Southeast 561 646 41,000  Level Minneapolis Center
Fri 06:22:38 PM 41.5775 -98.5336 125° Southeast 560 644 41,000 339 Level Minneapolis Center
Fri 06:23:40 PM 41.4869 -98.3642 125° Southeast 558 642 41,700 919 Climbing Minneapolis Center
Fri 06:24:42 PM 41.3994 -98.1994 125° Southeast 551 634 42,900 624 Climbing Minneapolis Center
Fri 06:25:45 PM 41.3144 -98.0417 126° Southeast 533 613 43,000 48 Climbing Minneapolis Center
Fri 06:26:47 PM 41.2283 -97.8819 126° Southeast 528 608 43,000 387 Level Minneapolis Center
Fri 06:27:49 PM 41.1414 -97.7231 126° Southeast 530 610 43,800 968 Climbing Minneapolis Center
Fri 06:28:51 PM 41.0575 -97.5700 126° Southeast 518 596 45,000 581 Climbing Minneapolis Center
Fri 06:29:53 PM 40.9592 -97.3881 126° Southeast 507 583 45,000  Level Minneapolis Center
Fri 06:30:55 PM 40.8792 -97.2417 126° Southeast 513 590 45,000  Level Minneapolis Center
Fri 06:31:57 PM 40.7947 -97.0900 126° Southeast 514 592 45,000  Level Minneapolis Center
Fri 06:32:59 PM 40.7103 -96.9375 126° Southeast 516 594 45,000  Level Minneapolis Center
Fri 06:34:01 PM 40.6086 -96.7542 126° Southeast 518 596 45,000  Level Minneapolis Center
Fri 06:35:03 PM 40.5242 -96.6022 126° Southeast 517 595 45,000  Level Minneapolis Center
Fri 06:36:05 PM 40.4397 -96.4508 126° Southeast 517 595 45,000  Level Minneapolis Center
Fri 06:37:07 PM 40.3544 -96.3011 127° Southeast 515 593 45,000  Level Minneapolis Center
Fri 06:38:09 PM 40.2694 -96.1514 127° Southeast 515 593 45,000  Level Minneapolis Center
Fri 06:39:12 PM 40.1856 -96.0025 126° Southeast 511 588 45,000  Level Minneapolis Center
Fri 06:40:14 PM 40.0833 -95.8242 127° Southeast 513 590 45,000  Level Minneapolis Center
Fri 06:40:46 PM 40.0494 -95.7636 126° Southeast 508 585 45,000 -326 Level Kansas City Center
Fri 06:41:46 PM 39.9533 -95.5967 127° Southeast 514 592 44,500 -919 Descending Kansas City Center
Fri 06:42:50 PM 39.8694 -95.4511 127° Southeast 522 601 43,100 -1,488 Descending Kansas City Center
Fri 06:43:51 PM 39.7908 -95.2647 119° Southeast 523 602 41,400 -1,033 Descending Kansas City Center
Fri 06:44:52 PM 39.7272 -95.1025 117° Southeast 524 603 41,000 -192 Descending Kansas City Center
Fri 06:45:56 PM 39.6633 -94.9386 117° Southeast 527 606 41,000  Level Kansas City Center
Fri 06:47:28 PM 39.5522 -94.6550 117° Southeast 524 603 41,000  Level Minneapolis Center
Fri 06:48:00 PM 39.5258 -94.5881 117° Southeast 525 604 41,000  Level Kansas City Center
Fri 06:49:02 PM 39.4508 -94.3997 117° Southeast 525 604 41,000  Level Kansas City Center
Fri 06:50:02 PM 39.3867 -94.2369 117° Southeast 529 609 41,000  Level Kansas City Center
Fri 06:52:00 PM 39.2602 -93.9342 118° Southeast  Level FlightAware Approximate
Fri 06:53:10 PM 39.1775 -93.7247 118° Southeast 530 610 41,000  Level Kansas City Center
Fri 06:54:11 PM 39.1011 -93.5364 118° Southeast 530 610 41,000  Level Kansas City Center
Fri 06:55:00 PM 39.0608 -93.4425 118° Southeast  Level FlightAware Approximate
Fri 06:56:15 PM 38.9658 -93.2075 118° Southeast 527 606 41,000  Level Kansas City Center
Fri 06:57:18 PM 38.8978 -93.0436 118° Southeast 522 601 41,000  Level Kansas City Center
Fri 06:58:20 PM 38.8136 -92.8456 119° Southeast 524 603 41,000  Level Kansas City Center
Fri 06:59:22 PM 38.7444 -92.6803 118° Southeast 524 603 41,000  Level Kansas City Center
Fri 07:00:23 PM 38.6753 -92.5158 118° Southeast 523 602 41,000  Level Kansas City Center
Fri 07:01:25 PM 38.6050 -92.3481 118° Southeast 526 605 41,000  Level Kansas City Center
Fri 07:02:28 PM 38.5350 -92.1839 119° Southeast 525 604 41,000  Level Kansas City Center
Fri 07:03:29 PM 38.4656 -92.0222 119° Southeast 517 595 41,000  Level Kansas City Center
Fri 07:04:33 PM 38.3961 -91.8608 119° Southeast 514 592 41,000  Level Kansas City Center
Fri 07:05:34 PM 38.3258 -91.7017 119° Southeast 512 589 41,000  Level Kansas City Center
Fri 07:06:35 PM 38.2439 -91.5142 119° Southeast 505 581 41,000  Level Kansas City Center
Fri 07:07:39 PM 38.1883 -91.3889 119° Southeast 499 574 41,000  Level Kansas City Center
Fri 07:08:39 PM 38.1094 -91.2067 119° Southeast 496 571 41,000  Level Kansas City Center
Fri 07:09:41 PM 38.0414 -91.0550 120° Southeast 496 571 41,000  Level Kansas City Center
Fri 07:10:45 PM 37.9725 -90.9028 120° Southeast 498 573 41,000  Level Kansas City Center
Fri 07:11:46 PM 37.9064 -90.7547 119° Southeast 494 568 41,000  Level Kansas City Center
Fri 07:12:49 PM 37.8392 -90.6061 120° Southeast 491 565 41,000 -871 Level Kansas City Center
Fri 07:13:50 PM 37.7572 -90.4264 120° Southeast 493 567 39,200 -1,820 Descending Kansas City Center
Fri 07:14:51 PM 37.7006 -90.2664 114° Southeast 511 588 37,300 -1,056 Descending Kansas City Center
Fri 07:15:55 PM 37.6675 -90.0964 104° East 509 586 37,000 -144 Descending Kansas City Center
Fri 07:16:56 PM 37.6350 -89.9219 103° East 510 587 37,000  Level Kansas City Center
Fri 07:17:57 PM 37.6033 -89.7450 103° East 516 594 37,000 -726 Level Kansas City Center
Fri 07:19:00 PM 37.5672 -89.5508 103° East 516 594 35,500 -1,632 Descending Kansas City Center
Fri 07:20:02 PM 37.5328 -89.3731 104° East 518 596 33,600 -1,200 Descending Kansas City Center
Fri 07:21:05 PM 37.4956 -89.1958 105° East 520 598 33,000 -290 Descending Kansas City Center
Fri 07:22:06 PM 37.4508 -88.9856 105° East 517 595 33,000  Level Kansas City Center
Fri 07:23:09 PM 37.3939 -88.8147 113° Southeast 526 605 33,000  Level Kansas City Center
Fri 07:24:10 PM 37.3389 -88.6444 112° Southeast 525 604 33,000  Level Kansas City Center
Fri 07:25:11 PM 37.2831 -88.4750 112° Southeast 524 603 33,000  Level Kansas City Center
Fri 07:26:14 PM 37.2275 -88.3075 113° Southeast 521 600 33,000 -97 Level Kansas City Center
Fri 07:27:15 PM 37.1719 -88.1397 113° Southeast 520 598 32,800 -1,610 Descending Kansas City Center
Fri 07:28:17 PM 37.1042 -87.9433 113° Southeast 530 610 29,700 -3,143 Descending Memphis Center
Fri 07:29:00 PM 37.0622 -87.8197 113° Southeast 538 619 27,300 -2,971 Descending Memphis Center
Fri 07:30:00 PM 37.0086 -87.6578 112° Southeast 522 601 24,600 -2,727 Descending Memphis Center
Fri 07:31:01 PM 36.9508 -87.4936 114° Southeast 487 560 21,800 -2,557 Descending Memphis Center
Fri 07:32:02 PM 36.9014 -87.3447 113° Southeast 474 545 19,400 -2,317 Descending Memphis Center
Fri 07:33:26 PM 36.8361 -87.1503 113° Southeast 456 525 16,200 -2,250 Descending Memphis Center
Fri 07:34:26 PM 36.7567 -87.0603 138° Southeast 405 466 14,000 -2,000 Descending Memphis Center
Fri 07:35:26 PM 36.6719 -87.0094 154° Southeast 359 413 12,200 -1,800 Descending Memphis Center
Fri 07:36:26 PM 36.5936 -86.9611 154° Southeast 319 367 10,400 -1,650 Descending Memphis Center
Fri 07:37:26 PM 36.5131 -86.9153 155° Southeast 300 345 8,900 -1,550 Descending Memphis Center
Fri 07:38:26 PM 36.4492 -86.8614 146° Southeast 288 331 7,300 -1,700 Descending Memphis Center
Fri 07:39:26 PM 36.3889 -86.7994 140° Southeast 283 326 5,500 -1,800 Descending Memphis Center
Fri 07:40:26 PM 36.3289 -86.7403 142° Southeast 283 326 3,700 -1,500 Descending Memphis Center
Fri 07:41:26 PM 36.2775 -86.6911 142° Southeast 272 313 2,500 -650 Descending Memphis Center
Fri 07:42:26 PM 36.2244 -86.6600 155° Southeast 239 275 2,400 -350 Descending Memphis Center
Fri 07:43:26 PM 36.1806 -86.6567 176° South 180 207 1,800 -700 Descending Memphis Center
Fri 07:44:26 PM 36.1456 -86.6714 199° South 143 165 1,000 -600 Descending Memphis Center
Fri 07:45:26 PM 36.1103 -86.6831 195° South 138 159 600 -400 Descending Memphis Center
Fri 07:47:00 PM 36.1167 -86.6667 90° East  Level FlightAware Approximate
Fri 07:54:00 PM 36.1245 -86.6782 90° East  Level Estimated
Fri 07:55:00 PM 36.1245 -86.6782 90° East  Level Estimated
Fri 07:56:00 PM 36.1245 -86.6782 90° East  Level Estimated
Fri 07:57:00 PM 36.1245 -86.6782 90° East  Level Estimated
Fri 07:58:00 PM 36.1245 -86.6782 90° East  Level Estimated
Fri 07:59:00 PM 36.1245 -86.6782 90° East  Level Estimated

Login

Don't have an account? Register now (free) for customized features, flight alerts, and more!